Time;durP1;ratioP1;P1;durP2;ratioP2;P2;SDS_P1;SDS_P2;PMS_P1;PMS_P2;Temp;Humidity;BMP_temperature;BMP_pressure;BME280_temperature;BME280_humidity;BME280_pressure;Samples;Min_cycle;Max_cycle;Signal;HPM_P1;HPM_P2
2022/02/04 00:25:17;;;;;;;5.53;3.10;;;;;;;0.17;100.00;95213.25;4991231;28;20039;-76
2022/02/04 00:27:43;;;;;;;6.55;3.33;;;;;;;0.12;100.00;95192.38;4991224;28;20038;-75
2022/02/04 00:30:33;;;;;;;7.65;3.30;;;;;;;0.14;100.00;95198.13;4992037;28;20730;-76
2022/02/04 00:33:00;;;;;;;5.88;2.72;;;;;;;0.16;100.00;95201.28;4998447;28;20054;-76
2022/02/04 00:38:18;;;;;;;6.63;2.92;;;;;;;-0.15;100.00;95194.34;4991557;28;20573;-76
2022/02/04 00:40:46;;;;;;;7.00;3.58;;;;;;;-0.04;100.00;95200.66;4990013;28;20103;-76
2022/02/04 00:43:14;;;;;;;7.85;3.42;;;;;;;-0.12;100.00;95198.31;4997052;28;20101;-76
2022/02/04 00:45:56;;;;;;;6.93;3.05;;;;;;;-0.19;100.00;95214.69;4989760;28;20504;-76
2022/02/04 00:48:46;;;;;;;7.40;3.65;;;;;;;-0.04;100.00;95216.97;4990775;28;20447;-76
2022/02/04 00:54:11;;;;;;;6.63;3.30;;;;;;;-0.01;100.00;95220.94;4991369;28;20117;-76
2022/02/04 00:56:44;;;;;;;6.93;3.00;;;;;;;-0.13;100.00;95222.59;4989902;28;20085;-76
2022/02/04 01:26:32;;;;;;;8.07;3.25;;;;;;;-0.07;100.00;95270.91;4982808;28;20105;-75
2022/02/04 01:28:58;;;;;;;5.82;2.80;;;;;;;-0.10;100.00;95279.06;4994459;28;20046;-75
2022/02/04 01:31:24;;;;;;;5.82;2.50;;;;;;;-0.01;100.00;95277.84;4999637;28;20049;-75
2022/02/04 01:33:51;;;;;;;9.77;3.08;;;;;;;0.03;100.00;95279.03;4988970;28;20055;-75
2022/02/04 01:36:17;;;;;;;8.15;3.20;;;;;;;-0.22;100.00;95281.53;4989825;28;20121;-75
2022/02/04 01:38:44;;;;;;;6.72;3.10;;;;;;;-0.21;100.00;95289.09;4989625;28;20038;-75
2022/02/04 01:41:10;;;;;;;7.32;3.08;;;;;;;-0.25;100.00;95287.91;4995425;28;20043;-75
2022/02/04 01:43:36;;;;;;;7.70;2.70;;;;;;;-0.24;100.00;95279.16;4989216;28;20077;-75
2022/02/04 01:46:04;;;;;;;8.85;3.30;;;;;;;-0.07;100.00;95283.84;4990489;28;20456;-75
2022/02/04 01:48:31;;;;;;;7.55;3.50;;;;;;;-0.32;100.00;95276.81;4989160;28;20053;-76
2022/02/04 01:50:58;;;;;;;7.60;3.35;;;;;;;-0.33;100.00;95275.25;4997894;28;20043;-76
2022/02/04 01:53:28;;;;;;;9.20;3.25;;;;;;;-0.15;100.00;95278.94;5007164;28;20046;-77
2022/02/04 01:55:56;;;;;;;8.60;3.45;;;;;;;-0.18;100.00;95273.16;4996885;28;20612;-76
2022/02/04 01:58:21;;;;;;;7.63;3.67;;;;;;;-0.21;100.00;95268.41;4986869;28;20074;-76
2022/02/04 02:00:47;;;;;;;5.88;3.30;;;;;;;-0.26;100.00;95275.19;4988105;28;20096;-76
2022/02/04 02:03:12;;;;;;;5.50;3.00;;;;;;;-0.25;100.00;95269.81;4990022;28;20504;-76
2022/02/04 02:05:38;;;;;;;5.82;3.08;;;;;;;-0.28;100.00;95272.81;4988464;28;20471;-76
2022/02/04 02:08:09;;;;;;;7.47;3.10;;;;;;;-0.43;100.00;95269.69;4990016;28;20069;-76
2022/02/04 02:10:36;;;;;;;9.30;3.15;;;;;;;-0.51;100.00;95275.13;4988237;28;20108;-76
2022/02/04 02:16:10;;;;;;;5.50;2.67;;;;;;;-0.74;100.00;95278.97;4988690;28;20042;-76
2022/02/04 02:46:23;;;;;;;6.78;2.78;;;;;;;-1.35;100.00;95304.09;4989074;28;20041;-76
2022/02/04 02:48:40;;;;;;;6.70;2.63;;;;;;;-1.34;100.00;95303.09;4983429;28;20531;-76
2022/02/04 02:52:28;;;;;;;5.70;2.90;;;;;;;-1.36;100.00;95301.72;4988607;28;20049;-76
2022/02/04 02:59:20;;;;;;;9.95;3.28;;;;;;;-1.61;100.00;95295.38;5005071;28;20038;-76
2022/02/04 03:01:49;;;;;;;6.05;3.08;;;;;;;-1.49;100.00;95297.34;4991792;28;20046;-76
2022/02/04 03:04:17;;;;;;;6.38;2.50;;;;;;;-1.46;100.00;95302.13;5008556;28;20092;-76
2022/02/04 03:06:45;;;;;;;6.45;2.75;;;;;;;-1.51;100.00;95300.09;4992446;28;20043;-76
2022/02/04 03:09:12;;;;;;;11.32;3.10;;;;;;;-1.52;100.00;95302.88;4992365;28;20101;-76
2022/02/04 03:11:37;;;;;;;5.93;2.60;;;;;;;-1.58;100.00;95305.28;4993018;28;20053;-76
2022/02/04 03:14:03;;;;;;;7.15;2.83;;;;;;;-1.58;100.00;95313.03;4993400;28;20038;-76
2022/02/04 03:16:29;;;;;;;7.20;3.17;;;;;;;-1.63;100.00;95302.50;4992693;28;20049;-76
2022/02/04 03:18:57;;;;;;;6.53;2.80;;;;;;;-1.62;100.00;95314.41;4992684;28;20046;-76
2022/02/04 03:21:34;;;;;;;6.43;2.90;;;;;;;-1.63;100.00;95315.41;4993371;28;20062;-76
2022/02/04 03:24:08;;;;;;;7.05;2.83;;;;;;;-1.59;100.00;95313.22;4993312;28;20042;-76
2022/02/04 03:26:47;;;;;;;8.20;3.20;;;;;;;-1.66;100.00;95318.38;4992730;28;20460;-76
2022/02/04 03:29:16;;;;;;;5.43;2.38;;;;;;;-1.72;100.00;95314.00;4993195;28;20292;-76
2022/02/04 03:31:47;;;;;;;6.78;2.83;;;;;;;-1.75;100.00;95317.00;4992410;28;20046;-76
2022/02/04 03:34:13;;;;;;;4.35;2.50;;;;;;;-1.88;100.00;95319.53;4990356;28;20493;-76
2022/02/04 03:36:39;;;;;;;4.97;2.88;;;;;;;-1.84;100.00;95310.41;4992622;28;20125;-76
2022/02/04 03:39:04;;;;;;;6.38;2.60;;;;;;;-1.79;100.00;95318.38;4991880;28;20077;-76
2022/02/04 03:41:30;;;;;;;4.72;2.38;;;;;;;-1.81;100.00;95322.91;4992125;28;20492;-76
2022/02/04 03:43:55;;;;;;;6.70;2.83;;;;;;;-1.93;100.00;95328.63;4992501;28;20038;-75
2022/02/04 03:46:21;;;;;;;7.85;3.00;;;;;;;-1.98;100.00;95325.88;4992316;28;20046;-76
2022/02/04 03:48:47;;;;;;;7.40;3.25;;;;;;;-2.04;100.00;95329.22;4978884;28;20039;-76
2022/02/04 03:51:12;;;;;;;6.60;2.92;;;;;;;-2.05;100.00;95335.38;4980956;28;20042;-76
2022/02/04 03:53:38;;;;;;;7.53;3.03;;;;;;;-1.96;100.00;95329.03;4991371;28;20421;-76
2022/02/04 03:56:04;;;;;;;7.72;2.72;;;;;;;-2.03;100.00;95323.06;4992178;28;20092;-76
2022/02/04 03:58:31;;;;;;;5.22;2.35;;;;;;;-2.04;100.00;95326.66;4991236;28;20053;-76
2022/02/04 04:00:58;;;;;;;5.90;2.90;;;;;;;-2.08;100.00;95325.44;4992193;28;20041;-76
2022/02/04 04:03:23;;;;;;;6.45;2.65;;;;;;;-2.17;100.00;95322.25;4991532;28;20416;-76
2022/02/04 04:05:50;;;;;;;7.85;2.95;;;;;;;-2.07;100.00;95327.00;4990704;28;20069;-76
2022/02/04 04:08:18;;;;;;;9.90;2.97;;;;;;;-1.98;100.00;95336.19;4991808;28;20542;-76
2022/02/04 04:10:44;;;;;;;5.53;3.03;;;;;;;-1.95;100.00;95330.63;4991334;28;20053;-76
2022/02/04 04:13:11;;;;;;;7.93;3.22;;;;;;;-2.04;100.00;95331.81;4991587;28;20046;-76
2022/02/04 04:15:37;;;;;;;8.13;3.05;;;;;;;-2.12;100.00;95329.41;4990882;28;20102;-76
2022/02/04 04:18:03;;;;;;;6.22;2.88;;;;;;;-2.14;100.00;95339.91;4999609;28;20066;-76
2022/02/04 04:20:29;;;;;;;8.38;2.83;;;;;;;-2.21;100.00;95336.50;5009253;28;20121;-76
2022/02/04 04:22:57;;;;;;;5.43;2.50;;;;;;;-2.06;100.00;95336.34;4991433;28;20053;-76
2022/02/04 04:25:23;;;;;;;6.50;3.00;;;;;;;-2.15;100.00;95345.25;4991261;28;20046;-75
2022/02/04 04:27:50;;;;;;;7.20;2.97;;;;;;;-2.32;100.00;95345.59;4990841;28;20038;-76
2022/02/04 04:30:18;;;;;;;7.03;3.05;;;;;;;-2.13;100.00;95353.59;4991602;28;20050;-76
2022/02/04 04:32:45;;;;;;;10.23;3.38;;;;;;;-2.05;100.00;95362.91;4991740;28;20065;-76
2022/02/04 04:35:12;;;;;;;6.85;3.47;;;;;;;-2.09;100.00;95355.56;4990486;28;20055;-76
2022/02/04 04:37:48;;;;;;;7.95;3.10;;;;;;;-2.18;100.00;95361.13;5014847;28;20080;-76
2022/02/04 04:41:05;;;;;;;5.82;2.80;;;;;;;-2.24;100.00;95367.03;4995687;28;20097;-76
2022/02/04 05:29:20;;;;;;;10.77;4.38;;;;;;;-1.61;100.00;95402.94;4995666;28;20050;-76
2022/02/04 05:31:46;;;;;;;9.77;4.57;;;;;;;-1.51;100.00;95400.78;4990170;28;20142;-76
2022/02/04 05:34:16;;;;;;;11.15;4.88;;;;;;;-1.57;100.00;95398.97;4990381;28;20121;-76
2022/02/04 05:36:45;;;;;;;10.00;4.70;;;;;;;-1.65;100.00;95401.72;4988118;28;20527;-76
2022/02/04 05:39:12;;;;;;;14.07;5.28;;;;;;;-1.68;100.00;95397.78;4995767;28;20051;-76
2022/02/04 05:41:42;;;;;;;12.65;5.05;;;;;;;-1.61;100.00;95388.25;4992598;28;20042;-75
2022/02/04 05:44:11;;;;;;;13.15;5.28;;;;;;;-1.55;100.00;95391.03;4990045;28;20042;-76
2022/02/04 05:46:49;;;;;;;9.82;4.50;;;;;;;-1.62;100.00;95397.00;4989661;28;20129;-76
2022/02/04 05:49:17;;;;;;;17.92;5.35;;;;;;;-1.79;100.00;95400.91;4983607;28;20055;-76
2022/02/04 05:51:51;;;;;;;12.20;5.40;;;;;;;-1.88;100.00;95400.31;4998095;28;20043;-76
2022/02/04 05:57:04;;;;;;;;;;;;;;;-1.79;100.00;95401.69;4989632;28;20487;-76
2022/02/04 06:00:03;;;;;;;12.10;5.50;;;;;;;-1.69;100.00;95396.19;4989635;28;19921;-75
2022/02/04 06:08:31;;;;;;;14.83;6.07;;;;;;;-1.59;100.00;95404.34;4988948;28;20042;-76
2022/02/04 06:24:16;;;;;;;16.60;7.32;;;;;;;-1.36;100.00;95426.44;4997904;28;20042;-76
2022/02/04 06:26:42;;;;;;;20.55;7.93;;;;;;;-1.32;100.00;95427.63;4989828;28;20061;-76
2022/02/04 06:29:07;;;;;;;18.98;7.80;;;;;;;-1.23;100.00;95436.75;4989041;28;20150;-75
2022/02/04 06:31:34;;;;;;;20.48;8.07;;;;;;;-1.11;100.00;95446.50;4997572;28;20099;-75
2022/02/04 06:34:00;;;;;;;16.50;7.32;;;;;;;-1.01;100.00;95439.16;4989315;28;20057;-75
2022/02/04 06:36:25;;;;;;;20.85;8.65;;;;;;;-0.84;100.00;95449.91;4988816;28;20046;-75
2022/02/04 06:38:51;;;;;;;20.25;8.50;;;;;;;-0.72;100.00;95443.16;4988508;28;20121;-76
2022/02/04 06:41:16;;;;;;;23.02;9.32;;;;;;;-0.47;100.00;95441.75;4996711;28;20070;-75
2022/02/04 06:43:42;;;;;;;27.52;11.10;;;;;;;-0.18;100.00;95446.44;4999499;28;20100;-76
2022/02/04 06:46:07;;;;;;;31.25;11.80;;;;;;;0.06;100.00;95439.03;4997130;28;20497;-76
2022/02/04 06:48:33;;;;;;;38.13;13.07;;;;;;;0.17;100.00;95440.97;4987912;28;20509;-76
2022/02/04 06:50:58;;;;;;;39.70;12.45;;;;;;;0.37;100.00;95444.47;4989256;28;20123;-76
2022/02/04 06:53:24;;;;;;;39.45;14.10;;;;;;;0.45;100.00;95447.63;4999339;28;20511;-76
2022/02/04 06:55:50;;;;;;;37.22;13.90;;;;;;;0.62;100.00;95449.75;4988168;28;20129;-75
2022/02/04 06:58:15;;;;;;;39.03;13.85;;;;;;;0.58;100.00;95453.75;4989435;28;20049;-76
2022/02/04 07:00:42;;;;;;;41.50;13.93;;;;;;;0.58;100.00;95451.16;4988508;28;20124;-75
2022/02/04 07:03:08;;;;;;;40.40;14.82;;;;;;;0.73;100.00;95454.22;5001119;28;20049;-75
2022/02/04 07:05:41;;;;;;;35.72;14.60;;;;;;;0.79;100.00;95453.41;4988109;28;20039;-76
2022/02/04 07:08:23;;;;;;;43.65;15.68;;;;;;;1.01;100.00;95458.25;4988763;28;20547;-76
2022/02/04 07:11:05;;;;;;;41.22;15.15;;;;;;;1.24;100.00;95455.09;4995222;28;20043;-76
2022/02/04 07:13:47;;;;;;;36.63;14.30;;;;;;;1.30;100.00;95458.66;4989364;28;20050;-77
2022/02/04 07:16:35;;;;;;;36.22;14.27;;;;;;;1.41;100.00;95470.94;4992222;28;20042;-77
2022/02/04 07:21:29;;;;;;;26.48;12.40;;;;;;;1.25;100.00;95466.25;4991193;28;20046;-77
2022/02/04 07:23:55;;;;;;;31.05;12.95;;;;;;;1.16;100.00;95469.09;4988544;28;20042;-77
2022/02/04 07:26:21;;;;;;;30.02;12.23;;;;;;;1.09;100.00;95473.53;4988842;28;20100;-77
2022/02/04 07:28:46;;;;;;;29.15;12.88;;;;;;;1.36;100.00;95473.34;4987685;28;20409;-77
2022/02/04 07:31:14;;;;;;;29.25;12.68;;;;;;;1.60;100.00;95483.94;4987972;28;20065;-76
2022/02/04 07:33:46;;;;;;;28.55;12.38;;;;;;;1.63;100.00;95483.50;4986608;28;20117;-76
2022/02/04 07:41:44;;;;;;;24.70;10.77;;;;;;;1.79;100.00;95482.94;4996859;28;20034;-75
2022/02/04 07:44:10;;;;;;;29.95;11.88;;;;;;;1.81;100.00;95480.13;5000886;28;20038;-76
2022/02/04 07:46:36;;;;;;;26.50;11.65;;;;;;;1.83;100.00;95484.13;4992524;28;20046;-74
2022/02/04 07:49:02;;;;;;;26.83;11.98;;;;;;;1.87;100.00;95481.91;4983118;28;20041;-74
2022/02/04 07:51:28;;;;;;;26.10;12.15;;;;;;;1.87;100.00;95480.09;4990531;28;20038;-74
2022/02/04 07:53:54;;;;;;;25.98;11.25;;;;;;;1.93;100.00;95478.44;4992625;28;20657;-75
2022/02/04 07:56:21;;;;;;;27.92;11.18;;;;;;;1.86;100.00;95472.53;4998559;28;20042;-74
2022/02/04 07:59:06;;;;;;;27.98;11.65;;;;;;;1.89;100.00;95475.47;4991965;28;20464;-75
2022/02/04 08:01:33;;;;;;;24.30;11.70;;;;;;;1.81;100.00;95470.56;4994500;28;20051;-74
2022/02/04 08:06:36;;;;;;;24.92;10.85;;;;;;;2.06;100.00;95477.50;4995568;28;20122;-75
2022/02/04 08:11:58;;;;;;;24.40;10.68;;;;;;;2.18;100.00;95480.94;4995389;28;20121;-75
2022/02/04 08:52:05;;;;;;;32.75;13.85;;;;;;;3.24;100.00;95472.78;4987771;28;20066;-75
2022/02/04 09:00:07;;;;;;;29.58;12.23;;;;;;;3.41;100.00;95483.34;4987068;28;20062;-74
2022/02/04 09:02:41;;;;;;;28.20;12.32;;;;;;;3.47;100.00;95494.66;4989075;28;20078;-74
2022/02/04 09:05:13;;;;;;;30.48;12.40;;;;;;;3.47;100.00;95492.06;4989613;28;20045;-74
2022/02/04 09:10:11;;;;;;;30.17;12.75;;;;;;;3.49;100.00;95484.03;4989577;28;20046;-74
2022/02/04 09:22:58;;;;;;;24.65;11.50;;;;;;;3.71;99.84;95486.88;4988196;28;20041;-76
2022/02/04 09:25:25;;;;;;;26.00;11.80;;;;;;;3.72;100.00;95498.84;4990807;28;20043;-76
2022/02/04 09:27:51;;;;;;;27.88;12.88;;;;;;;3.58;100.00;95486.06;4991953;28;20188;-77
2022/02/04 09:30:18;;;;;;;27.17;12.38;;;;;;;3.62;100.00;95494.22;4992203;28;20584;-77
2022/02/04 09:32:44;;;;;;;27.58;12.80;;;;;;;3.93;99.62;95484.50;4990945;28;20053;-77
2022/02/04 09:35:22;;;;;;;26.67;12.38;;;;;;;3.91;100.00;95482.13;4988163;28;20163;-76
2022/02/04 09:37:52;;;;;;;27.70;12.00;;;;;;;4.14;97.92;95477.91;4990401;28;20034;-77
2022/02/04 09:40:19;;;;;;;25.05;12.07;;;;;;;4.24;96.32;95480.72;4997778;28;20512;-78
2022/02/04 09:42:45;;;;;;;24.83;11.35;;;;;;;4.06;97.62;95478.25;4998126;28;20042;-79
2022/02/04 09:45:14;;;;;;;35.20;12.18;;;;;;;4.36;95.49;95482.50;4997061;28;20048;-78
2022/02/04 09:47:42;;;;;;;20.42;9.88;;;;;;;4.64;94.77;95479.94;5006220;28;20092;-77
2022/02/04 09:50:15;;;;;;;27.33;11.32;;;;;;;4.61;94.97;95472.59;4999784;28;20058;-75
2022/02/04 10:15:46;;;;;;;19.30;8.88;;;;;;;4.83;88.75;95461.50;4987232;28;20049;-76
2022/02/04 10:18:26;;;;;;;18.83;8.40;;;;;;;4.84;88.26;95476.09;4986781;28;20045;-76
2022/02/04 10:20:53;;;;;;;18.52;8.60;;;;;;;4.77;88.54;95470.25;4994622;28;20404;-76
2022/02/04 10:23:18;;;;;;;19.25;8.75;;;;;;;4.84;87.89;95463.88;4994647;28;20501;-76
2022/02/04 10:25:44;;;;;;;20.27;8.38;;;;;;;4.95;87.00;95458.84;4987805;28;20089;-75
2022/02/04 10:28:25;;;;;;;18.45;8.00;;;;;;;5.05;86.81;95458.22;4988281;28;20074;-75
2022/02/04 10:31:04;;;;;;;15.23;7.57;;;;;;;5.11;84.32;95446.84;4997930;28;20053;-77
2022/02/04 10:33:30;;;;;;;18.15;8.13;;;;;;;4.90;85.70;95450.91;5023257;28;20100;-76
2022/02/04 10:35:57;;;;;;;20.42;7.50;;;;;;;4.96;85.79;95450.00;5007096;28;20038;-76
2022/02/04 10:38:37;;;;;;;16.70;8.25;;;;;;;4.83;84.63;95448.47;4995005;28;20045;-76
2022/02/04 10:41:17;;;;;;;17.48;7.88;;;;;;;4.99;86.15;95434.66;4979122;28;20042;-77
2022/02/04 10:59:31;;;;;;;16.85;7.15;;;;;;;5.08;84.70;95421.25;4996369;28;20034;-79
2022/02/04 11:02:33;;;;;;;16.00;7.50;;;;;;;5.03;84.50;95419.34;4996892;28;20512;-79
2022/02/04 11:05:07;;;;;;;20.45;8.75;;;;;;;5.06;84.66;95412.84;4997972;28;20058;-77
2022/02/04 11:52:29;;;;;;;17.17;7.47;;;;;;;8.91;71.55;95341.22;5000638;28;20420;-79
2022/02/04 11:54:56;;;;;;;15.13;6.70;;;;;;;8.24;70.35;95338.47;4987872;28;20488;-79
2022/02/04 11:57:25;;;;;;;17.30;7.68;;;;;;;9.13;68.04;95331.22;5000225;28;20046;-74
2022/02/04 12:00:00;;;;;;;14.10;6.95;;;;;;;10.49;63.63;95312.13;5005482;28;20045;-73
2022/02/04 12:02:26;;;;;;;14.32;7.05;;;;;;;9.03;68.35;95320.72;4998974;28;20062;-73
2022/02/04 12:07:37;;;;;;;15.10;7.47;;;;;;;10.77;61.00;95302.69;4997765;28;20061;-75
2022/02/04 12:10:16;;;;;;;19.48;7.65;;;;;;;11.05;59.91;95297.75;4998665;28;20042;-74
2022/02/04 12:18:05;;;;;;;14.18;7.22;;;;;;;10.46;60.54;95289.78;4997481;28;20058;-73
2022/02/04 12:20:46;;;;;;;17.27;7.00;;;;;;;10.21;63.36;95280.16;4998636;28;20089;-72
2022/02/04 12:23:35;;;;;;;15.52;7.55;;;;;;;9.61;63.06;95272.28;4998437;28;20050;-73
2022/02/04 12:26:13;;;;;;;19.58;7.18;;;;;;;9.61;62.77;95261.78;4994864;28;20054;-75
2022/02/04 12:28:49;;;;;;;13.13;6.55;;;;;;;9.25;63.89;95254.81;4993185;28;20046;-75
2022/02/04 12:31:29;;;;;;;12.45;6.85;;;;;;;10.04;60.33;95244.50;4994109;28;20579;-72
2022/02/04 12:33:58;;;;;;;14.88;6.53;;;;;;;11.08;57.93;95244.53;4986289;28;20501;-74
2022/02/04 12:36:24;;;;;;;14.80;7.57;;;;;;;10.47;60.05;95251.09;5000503;28;20814;-75
2022/02/04 12:38:53;;;;;;;17.02;7.32;;;;;;;11.34;58.13;95236.38;4991553;28;20061;-76
2022/02/04 12:41:30;;;;;;;18.80;7.38;;;;;;;11.74;56.99;95234.31;4990449;28;20062;-76
2022/02/04 12:43:59;;;;;;;12.75;7.03;;;;;;;9.92;59.03;95230.13;4991498;28;20042;-77
2022/02/04 12:46:27;;;;;;;12.68;6.93;;;;;;;10.95;57.87;95232.81;4991189;28;20046;-75
2022/02/04 12:49:05;;;;;;;12.43;6.68;;;;;;;11.19;55.37;95224.13;4985994;28;20039;-75
2022/02/04 12:51:38;;;;;;;14.23;6.65;;;;;;;11.79;57.62;95215.78;4985417;28;20054;-75
2022/02/04 12:54:03;;;;;;;12.52;6.68;;;;;;;12.00;54.67;95218.19;4990896;28;20047;-75
2022/02/04 12:57:14;;;;;;;13.43;6.63;;;;;;;11.90;56.79;95211.19;4990825;28;20046;-75
2022/02/04 13:07:52;;;;;;;11.37;6.47;;;;;;;12.21;52.94;95190.47;4989825;28;20043;-76
2022/02/04 13:10:25;;;;;;;11.93;6.75;;;;;;;11.71;55.63;95187.41;4985600;28;20693;-74
2022/02/04 13:12:59;;;;;;;12.07;6.10;;;;;;;11.22;56.18;95198.03;4988897;28;20456;-74
2022/02/04 13:15:27;;;;;;;14.63;7.45;;;;;;;10.05;57.54;95177.72;4987771;28;20042;-74
2022/02/04 13:17:54;;;;;;;12.82;6.88;;;;;;;10.65;56.93;95178.59;4984171;28;20688;-76
2022/02/04 13:20:22;;;;;;;13.07;6.45;;;;;;;9.87;59.10;95181.78;4983392;28;20062;-74
2022/02/04 13:22:55;;;;;;;10.98;6.70;;;;;;;9.58;59.56;95173.78;4986245;28;20045;-74
2022/02/04 13:25:23;;;;;;;11.23;6.22;;;;;;;8.88;61.92;95173.78;4984972;28;20521;-77
2022/02/04 13:28:18;;;;;;;12.30;7.00;;;;;;;8.97;62.11;95164.31;4983368;28;20512;-75
2022/02/04 13:31:04;;;;;;;11.45;6.05;;;;;;;9.08;61.24;95175.56;4986503;28;20046;-74
2022/02/04 13:33:38;;;;;;;13.60;6.95;;;;;;;8.92;62.56;95173.00;4987256;28;20093;-74
2022/02/04 13:38:54;;;;;;;15.80;7.15;;;;;;;8.78;65.26;95183.25;4984041;28;20064;-74
2022/02/04 13:46:55;;;;;;;13.68;7.10;;;;;;;8.05;67.40;95179.06;5003955;28;20175;-75
2022/02/04 13:52:25;;;;;;;;;;;;;;;8.04;68.48;95168.84;4989990;28;20117;-75
2022/02/04 13:57:53;;;;;;;13.32;6.97;;;;;;;7.83;67.20;95168.03;4973382;28;20050;-75
2022/02/04 14:00:23;;;;;;;11.02;6.43;;;;;;;7.97;67.89;95163.84;4988821;28;20054;-75
2022/02/04 14:02:57;;;;;;;13.60;7.05;;;;;;;7.97;66.98;95167.28;4988294;28;20074;-75
2022/02/04 14:05:25;;;;;;;12.98;7.05;;;;;;;7.56;69.06;95166.41;4990441;28;20053;-75
2022/02/04 14:07:54;;;;;;;11.48;6.28;;;;;;;7.71;68.37;95163.81;4989108;28;20496;-75
2022/02/04 14:10:24;;;;;;;15.35;7.22;;;;;;;7.55;67.72;95162.22;4990065;28;20061;-75
2022/02/04 14:13:05;;;;;;;15.07;7.55;;;;;;;7.56;67.06;95161.19;4994313;28;20041;-75
2022/02/04 14:15:31;;;;;;;9.85;4.85;;;;;;;7.62;67.19;95162.75;4990952;28;20492;-75
2022/02/04 14:18:00;;;;;;;13.80;7.07;;;;;;;7.55;66.97;95156.97;4997491;28;20038;-75
2022/02/04 14:20:27;;;;;;;17.63;6.50;;;;;;;7.55;68.69;95159.59;4994201;28;20042;-74
2022/02/04 14:22:52;;;;;;;14.65;7.18;;;;;;;7.59;69.40;95158.81;4991818;28;20411;-75
2022/02/04 14:25:18;;;;;;;14.52;7.20;;;;;;;7.71;69.00;95158.56;4996855;28;20046;-75
2022/02/04 14:27:47;;;;;;;13.35;6.97;;;;;;;7.63;70.34;95153.88;5001554;28;20046;-75
2022/02/04 14:30:18;;;;;;;13.40;7.18;;;;;;;7.16;71.00;95160.00;4990559;28;20492;-75
2022/02/04 14:32:53;;;;;;;14.35;7.13;;;;;;;7.29;72.58;95154.28;4989824;28;20038;-75
2022/02/04 14:54:25;;;;;;;13.70;7.10;;;;;;;7.21;72.77;95146.91;4994777;28;20046;-74
2022/02/04 15:00:32;;;;;;;12.27;6.63;;;;;;;6.98;72.71;95143.69;4992673;28;20034;-76
2022/02/04 15:02:38;;;;;;;12.80;6.88;;;;;;;6.78;73.99;95133.13;4988744;28;20085;-76
2022/02/04 15:05:08;;;;;;;15.35;7.53;;;;;;;6.59;74.56;95125.72;4994008;28;20107;-77
2022/02/04 15:07:36;;;;;;;13.07;6.57;;;;;;;6.59;73.76;95130.94;4992611;28;20057;-76
2022/02/04 15:10:04;;;;;;;14.05;7.35;;;;;;;6.59;74.07;95125.72;4989500;28;20100;-75
2022/02/04 15:12:30;;;;;;;13.43;6.55;;;;;;;6.46;75.49;95123.56;4993319;28;20042;-73
2022/02/04 15:14:55;;;;;;;14.32;6.85;;;;;;;6.45;75.15;95120.16;4993027;28;20444;-74
2022/02/04 15:17:21;;;;;;;15.40;7.28;;;;;;;6.38;75.20;95120.38;4998673;28;20129;-76
2022/02/04 15:19:49;;;;;;;14.57;7.03;;;;;;;6.28;75.33;95109.84;4993380;28;20073;-75
2022/02/04 15:22:15;;;;;;;15.32;6.75;;;;;;;6.39;75.02;95111.50;4993991;28;20058;-75
2022/02/04 15:24:40;;;;;;;13.93;6.80;;;;;;;6.33;74.95;95104.66;4988815;28;20043;-75
2022/02/04 15:27:06;;;;;;;14.50;7.43;;;;;;;6.35;75.55;95094.75;4991482;28;20038;-75
2022/02/04 15:29:35;;;;;;;14.55;6.57;;;;;;;6.32;74.66;95100.47;5001445;28;20064;-75
2022/02/04 15:32:02;;;;;;;14.23;6.85;;;;;;;6.19;75.36;95111.34;5005233;28;20499;-73
2022/02/04 15:34:28;;;;;;;11.63;6.28;;;;;;;6.06;76.44;95107.34;4988775;28;20821;-75
2022/02/04 15:36:53;;;;;;;11.75;6.32;;;;;;;6.02;76.67;95107.06;4989388;28;20030;-75
2022/02/04 15:39:22;;;;;;;15.05;6.70;;;;;;;5.93;77.06;95108.50;4986712;28;20042;-75
2022/02/04 15:41:52;;;;;;;15.98;6.70;;;;;;;5.94;76.63;95097.03;4991177;28;20043;-76
2022/02/04 15:44:36;;;;;;;12.80;6.32;;;;;;;6.10;76.34;95097.19;4992465;28;20041;-75
2022/02/04 15:55:26;;;;;;;12.50;6.57;;;;;;;5.73;77.12;95104.72;4992529;28;20117;-74
2022/02/04 15:58:00;;;;;;;11.98;5.80;;;;;;;5.59;78.49;95103.53;4990217;28;20109;-75
2022/02/04 16:05:44;;;;;;;11.52;6.50;;;;;;;5.56;79.09;95104.03;4980973;28;20059;-77
2022/02/04 16:08:14;;;;;;;12.48;6.65;;;;;;;5.42;79.16;95098.41;4993179;28;20046;-75
2022/02/04 16:11:07;;;;;;;11.73;6.40;;;;;;;5.38;78.95;95097.34;4981215;28;20046;-76
2022/02/04 16:18:54;;;;;;;13.35;6.55;;;;;;;5.20;80.61;95103.66;4986442;28;20047;-76
2022/02/04 16:21:26;;;;;;;13.40;6.60;;;;;;;4.89;82.94;95105.94;4990336;28;20125;-76
2022/02/04 16:24:03;;;;;;;10.35;5.68;;;;;;;4.85;83.44;95097.81;4985001;28;20053;-77
2022/02/04 16:29:15;;;;;;;13.93;6.80;;;;;;;4.69;83.78;95101.25;4987584;28;20042;-77
2022/02/04 16:31:40;;;;;;;12.98;6.32;;;;;;;4.49;84.05;95101.78;4997407;28;20109;-76
2022/02/04 16:34:09;;;;;;;16.38;7.50;;;;;;;4.16;86.34;95106.81;4991263;28;20117;-76
2022/02/04 16:36:42;;;;;;;32.70;7.28;;;;;;;3.88;87.87;95106.88;4985348;28;20077;-76
2022/02/04 16:39:09;;;;;;;14.32;6.30;;;;;;;3.80;88.32;95105.47;4991461;28;20070;-77
2022/02/04 16:44:32;;;;;;;16.52;8.35;;;;;;;3.85;87.23;95102.97;4980959;28;20069;-76
2022/02/04 16:47:00;;;;;;;17.75;8.60;;;;;;;3.57;88.51;95112.38;4990702;28;20445;-77
2022/02/04 16:49:26;;;;;;;17.60;8.23;;;;;;;3.46;89.20;95101.03;4985261;28;20040;-76
2022/02/04 16:51:52;;;;;;;20.73;8.50;;;;;;;3.51;89.00;95112.56;5003529;28;20052;-81
2022/02/04 16:54:19;;;;;;;20.08;9.23;;;;;;;3.45;89.18;95109.06;5018218;28;20417;-77
2022/02/04 16:56:45;;;;;;;23.02;9.70;;;;;;;3.37;90.01;95109.44;4991352;28;20047;-77
2022/02/04 16:59:11;;;;;;;21.80;9.82;;;;;;;3.27;90.05;95108.22;4999111;28;20038;-75
2022/02/04 17:01:36;;;;;;;19.25;9.32;;;;;;;3.24;89.79;95105.31;4995750;28;20042;-76
2022/02/04 17:04:04;;;;;;;26.02;11.05;;;;;;;3.31;90.27;95118.19;5005001;28;20519;-76
2022/02/04 17:06:35;;;;;;;25.35;10.20;;;;;;;3.14;91.38;95105.13;5005940;28;20053;-76
2022/02/04 17:09:22;;;;;;;33.25;11.07;;;;;;;3.10;90.93;95113.41;4989249;28;20038;-76
2022/02/04 17:11:50;;;;;;;28.85;12.65;;;;;;;3.12;91.34;95105.38;4991169;28;20053;-76
2022/02/04 17:14:17;;;;;;;31.70;12.68;;;;;;;2.87;91.88;95109.03;4991217;28;20045;-77
2022/02/04 17:16:43;;;;;;;30.70;13.02;;;;;;;2.89;91.84;95107.00;4990114;28;20046;-76
2022/02/04 17:19:10;;;;;;;30.13;12.27;;;;;;;2.62;93.44;95111.16;5010381;28;20045;-75
2022/02/04 17:21:38;;;;;;;30.10;12.27;;;;;;;2.66;93.77;95112.25;4999964;28;20045;-76
2022/02/04 17:24:04;;;;;;;22.10;10.27;;;;;;;2.71;94.56;95120.16;4991209;28;20098;-75
2022/02/04 17:26:29;;;;;;;19.55;8.98;;;;;;;3.04;94.14;95121.31;4989806;28;20046;-75
2022/02/04 17:28:55;;;;;;;26.98;8.48;;;;;;;3.15;92.99;95130.91;4988965;28;20523;-74
2022/02/04 17:31:21;;;;;;;17.15;8.60;;;;;;;3.13;92.59;95132.91;4999181;28;20128;-75
2022/02/04 17:33:47;;;;;;;17.95;8.77;;;;;;;3.02;93.01;95146.78;5007492;28;20046;-75
2022/02/04 17:36:13;;;;;;;27.20;8.20;;;;;;;3.00;92.21;95154.00;4987463;28;20046;-76
2022/02/04 17:38:42;;;;;;;16.55;8.13;;;;;;;2.95;92.76;95155.47;4980754;28;20600;-76
2022/02/04 17:41:09;;;;;;;18.35;8.20;;;;;;;2.79;93.66;95158.78;4995315;28;20034;-77
2022/02/04 17:43:36;;;;;;;17.38;7.35;;;;;;;2.62;92.90;95163.88;4990431;28;20042;-77
2022/02/04 17:46:03;;;;;;;19.08;8.73;;;;;;;2.66;94.88;95167.63;4987316;28;20050;-75
2022/02/04 17:48:40;;;;;;;17.05;9.00;;;;;;;2.64;94.54;95168.84;4990543;28;20422;-75
2022/02/04 17:54:14;;;;;;;14.13;7.65;;;;;;;2.66;95.28;95169.41;5000422;28;20039;-77
2022/02/04 17:56:35;;;;;;;19.92;7.85;;;;;;;2.72;95.26;95178.91;4987098;28;20066;-84
2022/02/04 17:59:17;;;;;;;15.52;7.68;;;;;;;2.88;94.51;95178.19;4991797;28;20045;-79
2022/02/04 18:02:58;;;;;;;17.77;8.18;;;;;;;2.92;93.92;95178.53;5002259;28;20634;-77
2022/02/04 18:07:31;;;;;;;16.17;6.95;;;;;;;3.25;92.96;95188.28;4981126;28;20065;-77
2022/02/04 18:09:57;;;;;;;16.70;7.93;;;;;;;3.29;92.70;95199.81;4986317;28;20144;-77
2022/02/04 18:12:24;;;;;;;17.17;7.40;;;;;;;3.51;91.67;95212.19;4990473;28;20049;-77
2022/02/04 18:14:52;;;;;;;14.63;7.65;;;;;;;3.62;91.40;95208.75;4984610;28;20076;-76
2022/02/04 18:17:19;;;;;;;15.70;7.68;;;;;;;3.57;91.37;95211.25;4990085;28;20043;-77